Time;durP1;ratioP1;P1;durP2;ratioP2;P2;SDS_P1;SDS_P2;PMS_P1;PMS_P2;Temp;Humidity;BMP_temperature;BMP_pressure;BME280_temperature;BME280_humidity;BME280_pressure;Samples;Min_cycle;Max_cycle;Signal;HPM_P1;HPM_P2
2023/01/17 00:01:47;;;;;;;2.07;1.30;;;;;;;;;;5095541;28;20447;-72
2023/01/17 00:09:53;;;;;;;10.93;1.50;;;;;;;;;;5095205;28;20576;-73
2023/01/17 00:12:20;;;;;;;1.67;1.10;;;;;;;;;;5095513;28;20947;-73
2023/01/17 00:14:49;;;;;;;1.30;1.00;;;;;;;;;;5095028;28;20458;-73
2023/01/17 00:17:16;;;;;;;1.93;1.40;;;;;;;;;;5095351;28;20456;-73
2023/01/17 01:34:36;;;;;;;2.20;1.40;;;;;;;;;;5093750;28;20515;-73
2023/01/17 01:37:04;;;;;;;1.70;1.37;;;;;;;;;;5093636;28;20461;-73
2023/01/17 01:39:31;;;;;;;2.33;1.47;;;;;;;;;;5093514;28;20498;-73
2023/01/17 01:41:58;;;;;;;2.43;1.30;;;;;;;;;;5093675;28;20787;-72
2023/01/17 01:44:46;;;;;;;2.43;1.43;;;;;;;;;;5093275;28;20470;-73
2023/01/17 01:47:16;;;;;;;3.93;1.47;;;;;;;;;;5093554;28;20447;-72
2023/01/17 01:49:43;;;;;;;1.70;1.30;;;;;;;;;;5093256;28;20471;-74
2023/01/17 01:52:12;;;;;;;2.00;1.40;;;;;;;;;;5093575;28;20970;-73
2023/01/17 01:54:41;;;;;;;1.80;1.30;;;;;;;;;;5093223;28;20451;-75
2023/01/17 01:57:10;;;;;;;1.60;1.20;;;;;;;;;;5093417;28;20951;-73
2023/01/17 01:59:38;;;;;;;3.20;1.77;;;;;;;;;;5093285;28;20491;-72
2023/01/17 02:02:07;;;;;;;4.90;2.57;;;;;;;;;;5093170;28;20947;-73
2023/01/17 02:04:34;;;;;;;4.13;2.37;;;;;;;;;;5093131;28;20830;-73
2023/01/17 02:07:05;;;;;;;4.73;2.70;;;;;;;;;;5093215;28;20458;-73
2023/01/17 02:09:34;;;;;;;3.37;1.97;;;;;;;;;;5093196;28;20919;-73
2023/01/17 02:12:01;;;;;;;1.90;1.23;;;;;;;;;;5093122;28;20940;-73
2023/01/17 02:14:28;;;;;;;3.20;1.77;;;;;;;;;;5093113;28;20450;-73
2023/01/17 02:17:01;;;;;;;2.70;1.43;;;;;;;;;;5092964;28;20454;-73
2023/01/17 02:19:37;;;;;;;2.03;1.23;;;;;;;;;;5093099;28;20490;-73
2023/01/17 02:22:15;;;;;;;1.60;1.40;;;;;;;;;;5093250;28;20454;-73
2023/01/17 02:24:56;;;;;;;1.90;1.27;;;;;;;;;;5092731;28;20458;-73
2023/01/17 02:27:25;;;;;;;2.53;1.17;;;;;;;;;;5092938;28;20454;-73
2023/01/17 02:30:06;;;;;;;1.33;1.20;;;;;;;;;;5092282;28;20474;-73
2023/01/17 02:32:43;;;;;;;1.50;0.87;;;;;;;;;;5092975;28;20871;-73
2023/01/17 02:35:14;;;;;;;2.43;0.90;;;;;;;;;;5092679;28;20446;-72
2023/01/17 02:37:45;;;;;;;3.80;1.30;;;;;;;;;;5092823;28;20458;-73
2023/01/17 02:40:14;;;;;;;2.27;1.03;;;;;;;;;;5092869;28;20581;-72
2023/01/17 02:42:44;;;;;;;2.03;1.33;;;;;;;;;;5092605;28;20459;-73
2023/01/17 02:45:15;;;;;;;1.90;1.20;;;;;;;;;;5092704;28;20462;-73
2023/01/17 02:47:44;;;;;;;1.57;1.00;;;;;;;;;;5092768;28;20450;-73
2023/01/17 02:50:12;;;;;;;2.97;1.20;;;;;;;;;;5092736;28;20876;-73
2023/01/17 02:52:48;;;;;;;2.03;1.10;;;;;;;;;;5092735;28;20459;-73
2023/01/17 02:55:21;;;;;;;1.60;1.00;;;;;;;;;;5092555;28;20813;-73
2023/01/17 02:58:03;;;;;;;1.40;1.07;;;;;;;;;;5092647;28;20877;-73
2023/01/17 03:00:36;;;;;;;2.07;1.17;;;;;;;;;;5090550;28;20486;-73
2023/01/17 03:03:08;;;;;;;1.50;1.10;;;;;;;;;;5092560;28;20454;-73
2023/01/17 03:05:40;;;;;;;1.97;1.13;;;;;;;;;;5092397;28;20459;-73
2023/01/17 03:08:07;;;;;;;1.53;1.07;;;;;;;;;;5092443;28;20474;-73
2023/01/17 03:10:35;;;;;;;4.07;1.37;;;;;;;;;;5092733;28;20487;-73
2023/01/17 03:13:03;;;;;;;1.93;1.20;;;;;;;;;;5092444;28;20458;-73
2023/01/17 03:15:30;;;;;;;1.80;1.13;;;;;;;;;;5093014;28;20447;-73
2023/01/17 03:18:01;;;;;;;1.70;1.00;;;;;;;;;;5096304;28;20458;-73
2023/01/17 03:20:29;;;;;;;1.50;1.00;;;;;;;;;;5096253;28;20497;-73
2023/01/17 03:22:56;;;;;;;1.20;1.00;;;;;;;;;;5096245;28;20998;-73
2023/01/17 03:25:23;;;;;;;1.87;1.30;;;;;;;;;;5096195;28;20454;-73
2023/01/17 03:27:50;;;;;;;1.40;1.10;;;;;;;;;;5096118;28;20457;-73
2023/01/17 03:30:20;;;;;;;1.20;0.90;;;;;;;;;;5095716;28;20449;-73
2023/01/17 03:32:47;;;;;;;1.30;1.17;;;;;;;;;;5096053;28;20901;-74
2023/01/17 03:35:14;;;;;;;1.63;1.13;;;;;;;;;;5095849;28;20446;-73
2023/01/17 03:37:43;;;;;;;1.50;1.03;;;;;;;;;;5096044;28;20454;-74
2023/01/17 03:40:10;;;;;;;2.90;1.00;;;;;;;;;;5095750;28;20497;-73
2023/01/17 03:42:38;;;;;;;1.93;1.07;;;;;;;;;;5095916;28;20479;-73
2023/01/17 03:45:06;;;;;;;2.53;1.20;;;;;;;;;;5095700;28;20451;-74
2023/01/17 03:47:34;;;;;;;1.40;1.00;;;;;;;;;;5095935;28;20461;-73
2023/01/17 03:50:01;;;;;;;1.63;0.90;;;;;;;;;;5095743;28;20477;-73
2023/01/17 03:52:29;;;;;;;1.40;1.00;;;;;;;;;;5095756;28;20450;-73
2023/01/17 03:54:57;;;;;;;1.60;1.00;;;;;;;;;;5095402;28;20457;-73
2023/01/17 03:57:24;;;;;;;1.20;0.90;;;;;;;;;;5095778;28;20979;-72
2023/01/17 03:59:51;;;;;;;2.23;1.00;;;;;;;;;;5095457;28;20513;-73
2023/01/17 04:02:18;;;;;;;1.50;1.00;;;;;;;;;;5095691;28;20457;-73
2023/01/17 04:04:45;;;;;;;6.70;1.30;;;;;;;;;;5095348;28;20451;-73
2023/01/17 04:07:13;;;;;;;1.50;1.07;;;;;;;;;;5095532;28;20439;-73
2023/01/17 04:09:40;;;;;;;1.70;1.07;;;;;;;;;;5095470;28;20478;-74
2023/01/17 04:12:08;;;;;;;1.40;1.00;;;;;;;;;;5095375;28;20458;-73
2023/01/17 04:14:35;;;;;;;1.90;1.00;;;;;;;;;;5095212;28;20457;-73
2023/01/17 04:17:03;;;;;;;1.87;1.00;;;;;;;;;;5095263;28;20463;-73
2023/01/17 04:19:31;;;;;;;1.80;1.10;;;;;;;;;;5095089;28;20482;-73
2023/01/17 04:21:58;;;;;;;2.57;1.20;;;;;;;;;;5095106;28;20451;-74
2023/01/17 04:24:25;;;;;;;1.93;1.20;;;;;;;;;;5095046;28;20454;-73
2023/01/17 04:26:52;;;;;;;1.67;1.00;;;;;;;;;;5094970;28;20458;-74
2023/01/17 04:29:21;;;;;;;1.67;1.00;;;;;;;;;;5095073;28;20473;-73
2023/01/17 04:31:48;;;;;;;6.23;3.83;;;;;;;;;;5094520;28;20819;-73
2023/01/17 04:34:15;;;;;;;2.93;2.20;;;;;;;;;;5094831;28;20457;-73
2023/01/17 04:36:42;;;;;;;2.27;1.40;;;;;;;;;;5094907;28;20929;-73
2023/01/17 04:39:09;;;;;;;1.60;1.30;;;;;;;;;;5094831;28;20849;-73
2023/01/17 04:41:36;;;;;;;1.73;1.27;;;;;;;;;;5094719;28;20832;-74
2023/01/17 04:44:03;;;;;;;1.30;1.10;;;;;;;;;;5094360;28;20469;-73
2023/01/17 04:46:32;;;;;;;1.60;1.20;;;;;;;;;;5094858;28;20474;-73
2023/01/17 04:48:59;;;;;;;5.47;2.00;;;;;;;;;;5094492;28;20486;-73
2023/01/17 04:51:26;;;;;;;4.33;2.40;;;;;;;;;;5094728;28;20462;-73
2023/01/17 04:53:53;;;;;;;4.90;3.30;;;;;;;;;;5094548;28;20951;-73
2023/01/17 04:56:20;;;;;;;2.93;2.53;;;;;;;;;;5094705;28;20864;-73
2023/01/17 04:58:47;;;;;;;5.00;2.43;;;;;;;;;;5094433;28;20470;-73
2023/01/17 05:01:14;;;;;;;4.50;3.53;;;;;;;;;;5094381;28;20489;-74
2023/01/17 05:03:43;;;;;;;6.20;2.57;;;;;;;;;;5094272;28;20457;-73
2023/01/17 05:06:10;;;;;;;1.73;1.30;;;;;;;;;;5094486;28;20787;-73
2023/01/17 05:08:37;;;;;;;1.80;1.40;;;;;;;;;;5094176;28;20478;-73
2023/01/17 05:11:04;;;;;;;11.63;4.20;;;;;;;;;;5094222;28;20454;-73
2023/01/17 05:13:31;;;;;;;16.23;5.00;;;;;;;;;;5094149;28;20966;-74
2023/01/17 05:15:58;;;;;;;2.17;1.70;;;;;;;;;;5093932;28;20947;-74
2023/01/17 05:18:26;;;;;;;2.23;1.63;;;;;;;;;;5094100;28;20481;-73
2023/01/17 05:20:54;;;;;;;2.60;1.87;;;;;;;;;;5094006;28;20482;-73
2023/01/17 05:23:21;;;;;;;3.30;2.10;;;;;;;;;;5093936;28;20455;-75
2023/01/17 05:25:48;;;;;;;5.47;2.90;;;;;;;;;;5093755;28;20453;-73
2023/01/17 05:28:15;;;;;;;7.10;4.20;;;;;;;;;;5093934;28;20982;-73
2023/01/17 05:30:43;;;;;;;8.00;4.10;;;;;;;;;;5093320;28;20469;-73
2023/01/17 05:33:10;;;;;;;8.60;4.23;;;;;;;;;;5093944;28;20455;-73
2023/01/17 05:35:37;;;;;;;10.70;4.90;;;;;;;;;;5093619;28;20449;-74
2023/01/17 05:38:06;;;;;;;5.27;3.83;;;;;;;;;;5093199;28;20936;-74
2023/01/17 05:40:33;;;;;;;8.60;2.77;;;;;;;;;;5093695;28;20489;-73
2023/01/17 05:43:02;;;;;;;6.70;2.60;;;;;;;;;;5093493;28;20466;-73
2023/01/17 05:45:30;;;;;;;7.33;4.00;;;;;;;;;;5093548;28;20447;-73
2023/01/17 05:47:58;;;;;;;2.80;2.07;;;;;;;;;;5093409;28;20457;-73
2023/01/17 05:50:26;;;;;;;2.83;1.97;;;;;;;;;;5093557;28;20493;-73
2023/01/17 05:52:54;;;;;;;2.10;1.63;;;;;;;;;;5093557;28;20458;-73
2023/01/17 05:55:22;;;;;;;4.07;1.93;;;;;;;;;;5093527;28;20947;-73
2023/01/17 05:57:50;;;;;;;7.60;4.57;;;;;;;;;;5093189;28;20460;-74
2023/01/17 06:00:17;;;;;;;36.10;16.67;;;;;;;;;;5093453;28;20823;-73
2023/01/17 06:02:45;;;;;;;25.00;15.07;;;;;;;;;;5093305;28;20450;-73
2023/01/17 06:05:12;;;;;;;22.87;12.63;;;;;;;;;;5093287;28;20924;-73
2023/01/17 06:07:40;;;;;;;28.60;13.57;;;;;;;;;;5093268;28;20952;-73
2023/01/17 06:10:09;;;;;;;24.73;11.40;;;;;;;;;;5093088;28;20473;-74
2023/01/17 06:12:38;;;;;;;12.10;8.03;;;;;;;;;;5093247;28;20481;-73
2023/01/17 06:15:05;;;;;;;7.73;4.03;;;;;;;;;;5092896;28;20944;-74
2023/01/17 06:17:32;;;;;;;3.80;2.80;;;;;;;;;;5093411;28;20529;-74
2023/01/17 06:19:59;;;;;;;12.37;7.13;;;;;;;;;;5092990;28;20499;-73
2023/01/17 06:22:26;;;;;;;4.90;3.30;;;;;;;;;;5092861;28;20486;-73
2023/01/17 06:24:53;;;;;;;3.83;3.40;;;;;;;;;;5092849;28;20939;-72
2023/01/17 06:27:21;;;;;;;3.50;3.20;;;;;;;;;;5093071;28;20459;-72
2023/01/17 06:29:50;;;;;;;3.20;1.83;;;;;;;;;;5092659;28;20479;-73
2023/01/17 06:32:17;;;;;;;2.10;1.43;;;;;;;;;;5092845;28;20447;-73
2023/01/17 06:34:44;;;;;;;3.17;1.70;;;;;;;;;;5092740;28;20818;-73
2023/01/17 06:37:11;;;;;;;1.40;1.20;;;;;;;;;;5092749;28;20447;-73
2023/01/17 06:39:38;;;;;;;1.93;1.60;;;;;;;;;;5092917;28;21006;-73
2023/01/17 06:42:05;;;;;;;4.60;3.50;;;;;;;;;;5092991;28;20489;-73
2023/01/17 06:44:32;;;;;;;3.80;2.70;;;;;;;;;;5092524;28;20462;-72
2023/01/17 06:47:01;;;;;;;2.97;2.50;;;;;;;;;;5092253;28;20861;-72
2023/01/17 06:49:28;;;;;;;5.30;3.30;;;;;;;;;;5092724;28;20481;-73
2023/01/17 06:51:55;;;;;;;5.40;3.80;;;;;;;;;;5095635;28;20447;-72
2023/01/17 06:54:22;;;;;;;4.33;2.47;;;;;;;;;;5096770;28;20454;-72
2023/01/17 06:56:49;;;;;;;3.20;2.90;;;;;;;;;;5095632;28;20447;-73
2023/01/17 06:59:16;;;;;;;4.80;2.20;;;;;;;;;;5096454;28;20473;-74
2023/01/17 07:01:43;;;;;;;3.90;2.20;;;;;;;;;;5096601;28;20490;-73
2023/01/17 07:04:11;;;;;;;4.33;2.33;;;;;;;;;;5096746;28;20541;-73
2023/01/17 07:06:39;;;;;;;5.60;2.50;;;;;;;;;;5096720;28;20454;-72
2023/01/17 07:09:06;;;;;;;5.50;2.10;;;;;;;;;;5096554;28;21010;-73
2023/01/17 07:11:33;;;;;;;24.83;12.90;;;;;;;;;;5096523;28;20818;-73
2023/01/17 07:14:00;;;;;;;23.10;9.40;;;;;;;;;;5096045;28;20458;-73
2023/01/17 07:16:28;;;;;;;148.00;41.27;;;;;;;;;;5096681;28;20454;-72
2023/01/17 07:18:56;;;;;;;281.07;73.80;;;;;;;;;;5095941;28;20478;-74
2023/01/17 07:21:25;;;;;;;193.33;57.30;;;;;;;;;;5097539;28;20937;-72
2023/01/17 07:23:52;;;;;;;148.47;46.00;;;;;;;;;;5096309;28;20446;-72
2023/01/17 07:26:19;;;;;;;212.00;65.13;;;;;;;;;;5096861;28;20465;-73
2023/01/17 07:28:46;;;;;;;233.50;68.53;;;;;;;;;;5096216;28;20482;-73
2023/01/17 07:31:14;;;;;;;228.83;62.60;;;;;;;;;;5095842;28;20525;-73
2023/01/17 07:33:41;;;;;;;143.80;45.40;;;;;;;;;;5096034;28;20451;-73
2023/01/17 07:36:09;;;;;;;141.93;45.00;;;;;;;;;;5096087;28;20455;-74
2023/01/17 07:38:37;;;;;;;146.80;47.03;;;;;;;;;;5095858;28;20474;-74
2023/01/17 07:41:05;;;;;;;134.23;41.87;;;;;;;;;;5095680;28;20490;-73
2023/01/17 07:43:32;;;;;;;93.07;32.40;;;;;;;;;;5094972;28;20463;-73
2023/01/17 07:45:59;;;;;;;51.17;23.73;;;;;;;;;;5094356;28;20455;-74
2023/01/17 07:48:26;;;;;;;82.43;30.10;;;;;;;;;;5094155;28;20470;-73
2023/01/17 07:50:54;;;;;;;63.50;27.83;;;;;;;;;;5094438;28;20450;-73
2023/01/17 07:53:21;;;;;;;71.13;26.10;;;;;;;;;;5094802;28;20454;-73
2023/01/17 07:55:49;;;;;;;40.93;14.70;;;;;;;;;;5094312;28;20929;-74
2023/01/17 07:58:16;;;;;;;27.33;11.93;;;;;;;;;;5094286;28;20481;-73
2023/01/17 08:00:44;;;;;;;28.03;10.60;;;;;;;;;;5094045;28;20454;-73
2023/01/17 08:03:13;;;;;;;20.97;9.50;;;;;;;;;;5093939;28;20455;-73
2023/01/17 08:05:41;;;;;;;15.87;8.87;;;;;;;;;;5094018;28;20478;-73
2023/01/17 08:08:08;;;;;;;11.80;6.60;;;;;;;;;;5094082;28;20838;-73
2023/01/17 08:10:35;;;;;;;24.97;14.40;;;;;;;;;;5094262;28;20446;-72
2023/01/17 08:13:04;;;;;;;8.77;5.87;;;;;;;;;;5093864;28;20466;-73
2023/01/17 08:15:31;;;;;;;14.33;7.00;;;;;;;;;;5093968;28;20459;-72
2023/01/17 08:17:59;;;;;;;9.30;5.87;;;;;;;;;;5093810;28;20519;-73
2023/01/17 08:20:26;;;;;;;8.30;4.87;;;;;;;;;;5094125;28;20458;-72
2023/01/17 08:22:54;;;;;;;4.50;3.17;;;;;;;;;;5093808;28;21010;-72
2023/01/17 08:25:21;;;;;;;6.17;3.63;;;;;;;;;;5093861;28;20982;-72
2023/01/17 08:27:48;;;;;;;4.00;2.43;;;;;;;;;;5093650;28;20454;-73
2023/01/17 08:30:17;;;;;;;3.60;2.30;;;;;;;;;;5093598;28;20450;-73
2023/01/17 08:32:45;;;;;;;4.80;2.93;;;;;;;;;;5093722;28;20458;-73
2023/01/17 08:35:13;;;;;;;3.13;2.20;;;;;;;;;;5093805;28;20450;-74
2023/01/17 08:37:40;;;;;;;8.53;2.63;;;;;;;;;;5093725;28;20971;-73
2023/01/17 08:40:09;;;;;;;3.30;2.17;;;;;;;;;;5093673;28;20462;-73
2023/01/17 08:42:38;;;;;;;5.67;2.50;;;;;;;;;;5056544;28;1058678;-73
2023/01/17 08:45:06;;;;;;;3.93;2.10;;;;;;;;;;5094401;28;20978;-74
2023/01/17 08:47:35;;;;;;;3.00;2.27;;;;;;;;;;5094617;28;20473;-73
2023/01/17 08:50:02;;;;;;;4.10;3.07;;;;;;;;;;5094400;28;20467;-73
2023/01/17 08:52:29;;;;;;;2.90;2.00;;;;;;;;;;5094580;28;20447;-74
2023/01/17 08:54:56;;;;;;;2.47;1.60;;;;;;;;;;5094036;28;20446;-74
2023/01/17 08:57:23;;;;;;;4.43;1.63;;;;;;;;;;5091314;28;20443;-74
2023/01/17 08:59:50;;;;;;;3.70;2.10;;;;;;;;;;5091270;28;20478;-73
2023/01/17 09:02:19;;;;;;;2.40;1.63;;;;;;;;;;5092705;28;20487;-73
2023/01/17 09:04:48;;;;;;;2.37;2.10;;;;;;;;;;5092472;28;20450;-73
2023/01/17 09:07:15;;;;;;;3.00;1.60;;;;;;;;;;5092786;28;20569;-73
2023/01/17 09:09:42;;;;;;;2.43;1.53;;;;;;;;;;5092491;28;20501;-73
2023/01/17 09:12:10;;;;;;;3.53;2.03;;;;;;;;;;5093031;28;20446;-73
2023/01/17 09:14:37;;;;;;;2.77;2.00;;;;;;;;;;5091875;28;20461;-74
2023/01/17 09:17:05;;;;;;;4.27;3.50;;;;;;;;;;5092717;28;20489;-74
2023/01/17 09:19:34;;;;;;;5.13;3.03;;;;;;;;;;5092627;28;20991;-74
2023/01/17 09:22:02;;;;;;;4.97;3.20;;;;;;;;;;5092459;28;20569;-73
2023/01/17 09:24:29;;;;;;;2.10;1.37;;;;;;;;;;5092762;28;20458;-73
2023/01/17 09:26:57;;;;;;;2.50;1.80;;;;;;;;;;5092484;28;20450;-73
2023/01/17 09:29:24;;;;;;;2.97;1.50;;;;;;;;;;5092562;28;20474;-73
2023/01/17 09:31:51;;;;;;;125.30;78.40;;;;;;;;;;5092238;28;20458;-73
2023/01/17 09:34:18;;;;;;;4.83;2.93;;;;;;;;;;5092376;28;20451;-74
2023/01/17 09:36:45;;;;;;;6.20;2.50;;;;;;;;;;5092441;28;20458;-73
2023/01/17 09:39:14;;;;;;;2.30;1.70;;;;;;;;;;5092365;28;20463;-74
2023/01/17 09:41:45;;;;;;;27.87;25.00;;;;;;;;;;5092083;28;20482;-74
2023/01/17 09:44:18;;;;;;;3.80;3.47;;;;;;;;;;5092170;28;20733;-73
2023/01/17 09:46:46;;;;;;;4.57;1.80;;;;;;;;;;5092169;28;20454;-74
2023/01/17 09:49:18;;;;;;;4.77;3.00;;;;;;;;;;5092017;28;20475;-75
2023/01/17 09:51:45;;;;;;;4.97;1.40;;;;;;;;;;5092138;28;20451;-75
2023/01/17 09:54:21;;;;;;;2.50;1.30;;;;;;;;;;5091956;28;20494;-74
2023/01/17 09:56:53;;;;;;;2.93;2.37;;;;;;;;;;5092128;28;21024;-74
2023/01/17 09:59:26;;;;;;;5.73;1.30;;;;;;;;;;5092111;28;20837;-74
2023/01/17 10:01:58;;;;;;;5.47;3.40;;;;;;;;;;5091791;28;20565;-74
2023/01/17 10:04:35;;;;;;;3.37;1.80;;;;;;;;;;5091948;28;20455;-73
2023/01/17 10:07:08;;;;;;;1.93;1.40;;;;;;;;;;5091755;28;20468;-74
2023/01/17 10:09:44;;;;;;;2.00;1.30;;;;;;;;;;5092047;28;20843;-74
2023/01/17 10:12:19;;;;;;;1.70;1.20;;;;;;;;;;5092017;28;20506;-74
2023/01/17 10:14:53;;;;;;;2.10;1.17;;;;;;;;;;5091603;28;20442;-74
2023/01/17 10:17:25;;;;;;;3.90;1.20;;;;;;;;;;5091889;28;20455;-74
2023/01/17 10:19:59;;;;;;;3.13;1.97;;;;;;;;;;5092366;28;20467;-74
2023/01/17 10:22:35;;;;;;;1.67;1.10;;;;;;;;;;5092808;28;20482;-74
2023/01/17 10:25:11;;;;;;;2.17;1.60;;;;;;;;;;5092193;28;20885;-73
2023/01/17 10:27:41;;;;;;;1.50;1.00;;;;;;;;;;5092736;28;20455;-73
2023/01/17 10:30:16;;;;;;;1.73;1.30;;;;;;;;;;5092388;28;20478;-74
2023/01/17 10:32:47;;;;;;;2.10;1.20;;;;;;;;;;5092727;28;20957;-73
2023/01/17 10:35:18;;;;;;;5.70;2.00;;;;;;;;;;5092631;28;20450;-73
2023/01/17 10:37:46;;;;;;;1.83;1.23;;;;;;;;;;5092870;28;20447;-73
2023/01/17 10:40:17;;;;;;;4.30;1.20;;;;;;;;;;5092379;28;20466;-73
2023/01/17 10:42:49;;;;;;;2.23;1.47;;;;;;;;;;5092562;28;20490;-73
2023/01/17 10:45:19;;;;;;;2.17;1.20;;;;;;;;;;5092697;28;20510;-73
2023/01/17 10:47:48;;;;;;;1.80;1.30;;;;;;;;;;5092778;28;20455;-73
2023/01/17 10:50:17;;;;;;;2.30;1.47;;;;;;;;;;5092902;28;20450;-73
2023/01/17 10:52:49;;;;;;;1.97;1.50;;;;;;;;;;5092742;28;20455;-73
2023/01/17 10:55:27;;;;;;;2.40;1.30;;;;;;;;;;5092569;28;20486;-74
2023/01/17 10:57:55;;;;;;;9.80;5.20;;;;;;;;;;5092553;28;20453;-73
2023/01/17 11:00:42;;;;;;;29.43;16.60;;;;;;;;;;5092682;28;20457;-72
2023/01/17 11:03:10;;;;;;;2.17;1.40;;;;;;;;;;5092678;28;20848;-73
2023/01/17 11:05:37;;;;;;;1.90;1.30;;;;;;;;;;5092542;28;20446;-73
2023/01/17 11:08:05;;;;;;;3.07;1.40;;;;;;;;;;5092325;28;20447;-73
2023/01/17 11:10:42;;;;;;;2.30;1.03;;;;;;;;;;5092635;28;20458;-73
2023/01/17 11:13:21;;;;;;;2.23;1.13;;;;;;;;;;5092485;28;20946;-72
2023/01/17 11:15:49;;;;;;;2.87;1.70;;;;;;;;;;5092407;28;20888;-72
2023/01/17 11:18:17;;;;;;;3.40;1.60;;;;;;;;;;5092412;28;20466;-73
2023/01/17 11:20:44;;;;;;;2.17;1.37;;;;;;;;;;5092512;28;20457;-73
2023/01/17 11:23:15;;;;;;;2.67;1.77;;;;;;;;;;5092511;28;20497;-72
2023/01/17 11:25:48;;;;;;;5.77;1.73;;;;;;;;;;5092284;28;21072;-73
2023/01/17 11:28:21;;;;;;;1.87;1.50;;;;;;;;;;5092479;28;20479;-73
2023/01/17 11:30:53;;;;;;;2.70;1.47;;;;;;;;;;5092074;28;20830;-72
2023/01/17 11:33:30;;;;;;;2.80;1.63;;;;;;;;;;5092362;28;20446;-73
2023/01/17 11:35:57;;;;;;;2.13;1.30;;;;;;;;;;5092209;28;20450;-72
2023/01/17 11:38:25;;;;;;;2.30;1.50;;;;;;;;;;5095728;28;20470;-73
2023/01/17 11:41:18;;;;;;;2.00;1.53;;;;;;;;;;5095974;28;20462;-72
2023/01/17 11:43:49;;;;;;;2.33;1.30;;;;;;;;;;5095489;28;20535;-73
2023/01/17 11:46:17;;;;;;;2.50;1.47;;;;;;;;;;5096057;28;20446;-72
2023/01/17 11:48:47;;;;;;;3.70;1.90;;;;;;;;;;5095677;28;20495;-73
2023/01/17 11:51:19;;;;;;;2.20;1.47;;;;;;;;;;5095893;28;20447;-72
2023/01/17 11:53:47;;;;;;;2.40;1.33;;;;;;;;;;5095530;28;20443;-72
2023/01/17 11:56:21;;;;;;;2.17;1.40;;;;;;;;;;5095643;28;20481;-73
2023/01/17 11:58:49;;;;;;;2.30;1.50;;;;;;;;;;5095583;28;20471;-72
2023/01/17 12:01:29;;;;;;;2.80;1.43;;;;;;;;;;5095563;28;20446;-73
2023/01/17 12:04:15;;;;;;;1.40;1.10;;;;;;;;;;5095330;28;20489;-72
2023/01/17 12:06:46;;;;;;;4.90;1.67;;;;;;;;;;5095695;28;21193;-73
2023/01/17 12:09:21;;;;;;;2.37;1.10;;;;;;;;;;5095626;28;20467;-72
2023/01/17 12:14:44;;;;;;;4.30;1.60;;;;;;;;;;5095253;28;20522;-72
2023/01/17 12:17:18;;;;;;;2.37;1.50;;;;;;;;;;5095675;28;20467;-71
2023/01/17 12:19:59;;;;;;;2.10;1.23;;;;;;;;;;5095351;28;20470;-71
2023/01/17 12:22:33;;;;;;;4.23;1.30;;;;;;;;;;5095737;28;20470;-71
2023/01/17 12:25:13;;;;;;;3.23;1.20;;;;;;;;;;5095843;28;20805;-71
2023/01/17 12:27:45;;;;;;;4.43;2.40;;;;;;;;;;5095738;28;20955;-71
2023/01/17 12:30:25;;;;;;;8.10;3.33;;;;;;;;;;5095560;28;20474;-70
2023/01/17 12:33:05;;;;;;;1.90;1.40;;;;;;;;;;5095272;28;20427;-71
2023/01/17 12:35:37;;;;;;;3.30;1.30;;;;;;;;;;5095459;28;20431;-71
2023/01/17 12:38:06;;;;;;;3.53;1.50;;;;;;;;;;5095506;28;20951;-71
2023/01/17 12:40:36;;;;;;;2.07;1.23;;;;;;;;;;5095305;28;20951;-71
2023/01/17 12:43:08;;;;;;;14.13;6.80;;;;;;;;;;5095019;28;20498;-71
2023/01/17 12:45:39;;;;;;;2.20;1.40;;;;;;;;;;5094981;28;20457;-71
2023/01/17 12:48:07;;;;;;;3.43;2.10;;;;;;;;;;5094031;28;20442;-71
2023/01/17 12:50:36;;;;;;;5.93;1.50;;;;;;;;;;5095258;28;20823;-70
2023/01/17 12:53:06;;;;;;;4.30;2.27;;;;;;;;;;5095188;28;20451;-71
2023/01/17 12:55:36;;;;;;;8.47;2.10;;;;;;;;;;5095126;28;20917;-71
2023/01/17 12:58:07;;;;;;;5.70;2.17;;;;;;;;;;5094929;28;20459;-71
2023/01/17 13:00:38;;;;;;;10.17;8.77;;;;;;;;;;5095217;28;20461;-71
2023/01/17 13:03:08;;;;;;;2.07;1.40;;;;;;;;;;5094642;28;20470;-71
2023/01/17 13:05:37;;;;;;;7.87;3.37;;;;;;;;;;5094620;28;20458;-71
2023/01/17 13:08:09;;;;;;;3.60;1.83;;;;;;;;;;5094698;28;20935;-71
2023/01/17 13:10:40;;;;;;;3.53;1.60;;;;;;;;;;5094885;28;20441;-71
2023/01/17 13:13:14;;;;;;;3.77;2.10;;;;;;;;;;5094820;28;20431;-71
2023/01/17 13:15:43;;;;;;;11.13;5.10;;;;;;;;;;5094783;28;20923;-71
2023/01/17 13:18:14;;;;;;;15.47;8.70;;;;;;;;;;5094579;28;20470;-71
2023/01/17 13:20:56;;;;;;;3.30;2.00;;;;;;;;;;5094678;28;20442;-71
2023/01/17 13:23:28;;;;;;;7.53;2.90;;;;;;;;;;5094503;28;20959;-71
2023/01/17 13:25:56;;;;;;;2.80;1.40;;;;;;;;;;5094304;28;20446;-71
2023/01/17 13:28:28;;;;;;;2.87;1.73;;;;;;;;;;5094416;28;20467;-71
2023/01/17 13:31:12;;;;;;;14.57;10.33;;;;;;;;;;5094560;28;20438;-71
2023/01/17 13:33:45;;;;;;;4.00;2.77;;;;;;;;;;5094069;28;20435;-71
2023/01/17 13:36:21;;;;;;;2.80;1.57;;;;;;;;;;5094418;28;20496;-71
2023/01/17 13:39:01;;;;;;;2.70;2.00;;;;;;;;;;5094157;28;20995;-71
2023/01/17 13:41:37;;;;;;;4.83;2.07;;;;;;;;;;5079710;28;20479;-71
2023/01/17 13:44:24;;;;;;;3.60;2.20;;;;;;;;;;5073426;28;20491;-71
2023/01/17 13:46:59;;;;;;;3.60;2.10;;;;;;;;;;5073898;28;20436;-71
2023/01/17 13:49:33;;;;;;;4.03;2.77;;;;;;;;;;5073354;28;20503;-71
2023/01/17 13:52:08;;;;;;;6.97;3.17;;;;;;;;;;5073727;28;20909;-71
2023/01/17 13:54:42;;;;;;;5.53;2.27;;;;;;;;;;5073677;28;20831;-71
2023/01/17 13:57:26;;;;;;;18.20;7.33;;;;;;;;;;5073466;28;20438;-71
2023/01/17 13:59:55;;;;;;;2.90;2.60;;;;;;;;;;5073341;28;20498;-71
2023/01/17 14:02:35;;;;;;;4.60;2.20;;;;;;;;;;5073336;28;20447;-71
2023/01/17 14:05:13;;;;;;;8.00;2.57;;;;;;;;;;5073625;28;20514;-71
2023/01/17 14:07:44;;;;;;;6.03;2.63;;;;;;;;;;5073604;28;20424;-71
2023/01/17 14:10:28;;;;;;;19.53;2.70;;;;;;;;;;5073497;28;20488;-71
2023/01/17 14:12:56;;;;;;;4.30;1.80;;;;;;;;;;5072878;28;20447;-70
2023/01/17 14:15:25;;;;;;;6.57;2.63;;;;;;;;;;5073501;28;20905;-71
2023/01/17 14:17:55;;;;;;;5.37;2.33;;;;;;;;;;5073375;28;20486;-71
2023/01/17 14:20:41;;;;;;;11.33;3.53;;;;;;;;;;5073548;28;20793;-71
2023/01/17 14:23:25;;;;;;;46.30;14.90;;;;;;;;;;5073061;28;20483;-71
2023/01/17 14:25:53;;;;;;;2.50;2.30;;;;;;;;;;5073010;28;20451;-71
2023/01/17 14:28:23;;;;;;;11.03;5.37;;;;;;;;;;5073310;28;20840;-71
2023/01/17 14:30:54;;;;;;;4.30;3.90;;;;;;;;;;5073029;28;20455;-70
2023/01/17 14:33:25;;;;;;;29.37;15.90;;;;;;;;;;5073330;28;20440;-71
2023/01/17 14:35:54;;;;;;;8.50;3.90;;;;;;;;;;5073358;28;20901;-71
2023/01/17 14:38:22;;;;;;;31.67;15.40;;;;;;;;;;5072895;28;20476;-71
2023/01/17 14:40:51;;;;;;;19.63;7.27;;;;;;;;;;5072535;28;20811;-70
2023/01/17 14:43:19;;;;;;;4.10;2.40;;;;;;;;;;5071653;28;20495;-71
2023/01/17 14:45:47;;;;;;;4.20;1.70;;;;;;;;;;5071513;28;20455;-71
2023/01/17 14:48:17;;;;;;;52.90;29.60;;;;;;;;;;5071708;28;20838;-71
2023/01/17 14:50:45;;;;;;;2.17;1.73;;;;;;;;;;5071812;28;20527;-71
2023/01/17 14:53:19;;;;;;;6.90;2.67;;;;;;;;;;5071998;28;20795;-71
2023/01/17 14:55:50;;;;;;;22.27;8.03;;;;;;;;;;5071801;28;20455;-71
2023/01/17 14:58:17;;;;;;;7.03;2.30;;;;;;;;;;5072672;28;20991;-71
2023/01/17 15:00:45;;;;;;;3.73;2.00;;;;;;;;;;5072789;28;20447;-71
2023/01/17 15:03:12;;;;;;;5.47;2.47;;;;;;;;;;5072879;28;20492;-71
2023/01/17 15:05:42;;;;;;;24.30;8.10;;;;;;;;;;5072930;28;20960;-71
2023/01/17 15:08:11;;;;;;;4.80;3.13;;;;;;;;;;5072803;28;20475;-71
2023/01/17 15:10:45;;;;;;;15.93;6.73;;;;;;;;;;5072799;28;20804;-71
2023/01/17 15:13:14;;;;;;;5.30;1.97;;;;;;;;;;5075432;28;20515;-71
2023/01/17 15:15:41;;;;;;;5.93;4.33;;;;;;;;;;5075584;28;20822;-70
2023/01/17 15:18:19;;;;;;;9.00;4.07;;;;;;;;;;5075353;28;20471;-70
2023/01/17 15:20:50;;;;;;;49.57;23.33;;;;;;;;;;5074834;28;20512;-70
2023/01/17 15:23:19;;;;;;;14.57;10.23;;;;;;;;;;5075325;28;20475;-71
2023/01/17 15:25:47;;;;;;;8.23;3.60;;;;;;;;;;5075336;28;20821;-71
2023/01/17 15:28:15;;;;;;;14.07;4.30;;;;;;;;;;5074911;28;20471;-71
2023/01/17 15:30:57;;;;;;;17.27;10.77;;;;;;;;;;5075351;28;20464;-70
2023/01/17 15:33:24;;;;;;;6.43;2.47;;;;;;;;;;5074783;28;20827;-71
2023/01/17 15:36:00;;;;;;;4.10;2.20;;;;;;;;;;5074711;28;20424;-71
2023/01/17 15:38:27;;;;;;;7.43;5.50;;;;;;;;;;5075131;28;20472;-70
2023/01/17 15:40:54;;;;;;;4.70;3.10;;;;;;;;;;5075074;28;20451;-71
2023/01/17 15:43:22;;;;;;;9.70;4.00;;;;;;;;;;5074729;28;20456;-71
2023/01/17 15:45:55;;;;;;;8.63;4.33;;;;;;;;;;5075058;28;20458;-71
2023/01/17 15:48:31;;;;;;;9.33;5.30;;;;;;;;;;5074902;28;20471;-71
2023/01/17 15:51:00;;;;;;;5.13;2.93;;;;;;;;;;5074765;28;20944;-71
2023/01/17 15:53:31;;;;;;;14.53;5.37;;;;;;;;;;5074602;28;20459;-71
2023/01/17 15:55:58;;;;;;;4.80;2.43;;;;;;;;;;5074842;28;20478;-71
2023/01/17 15:58:27;;;;;;;7.27;2.57;;;;;;;;;;5074725;28;20972;-71
2023/01/17 16:00:54;;;;;;;8.03;4.93;;;;;;;;;;5074874;28;20479;-71
2023/01/17 16:03:23;;;;;;;5.30;2.97;;;;;;;;;;5074669;28;20944;-71
2023/01/17 16:05:50;;;;;;;5.20;3.23;;;;;;;;;;5074547;28;20454;-71
2023/01/17 16:08:23;;;;;;;6.63;2.47;;;;;;;;;;5074428;28;20490;-71
2023/01/17 16:10:53;;;;;;;9.97;4.90;;;;;;;;;;5073975;28;20432;-70
2023/01/17 16:13:21;;;;;;;28.20;17.13;;;;;;;;;;5074384;28;20451;-70
2023/01/17 16:15:48;;;;;;;80.67;45.43;;;;;;;;;;5074455;28;20494;-71
2023/01/17 16:18:16;;;;;;;75.47;40.90;;;;;;;;;;5074381;28;20471;-71